Time;durP1;ratioP1;P1;durP2;ratioP2;P2;SDS_P1;SDS_P2;PMS_P1;PMS_P2;Temp;Humidity;BMP_temperature;BMP_pressure;BME280_temperature;BME280_humidity;BME280_pressure;Samples;Min_cycle;Max_cycle;Signal;HPM_P1;HPM_P2
2022/10/10 00:01:09;;;;;;;2.93;2.30;;;9.20;77.80;;;;;;909743;153;27393;-78
2022/10/10 00:03:36;;;;;;;3.03;2.20;;;9.20;77.90;;;;;;908845;153;27401;-77
2022/10/10 00:06:02;;;;;;;2.93;2.50;;;9.20;78.10;;;;;;907813;153;27356;-78
2022/10/10 00:08:29;;;;;;;3.40;2.53;;;9.30;78.20;;;;;;908840;153;27931;-78
2022/10/10 00:10:56;;;;;;;2.67;2.17;;;9.30;78.40;;;;;;907014;153;27881;-78
2022/10/10 00:13:22;;;;;;;2.83;2.53;;;9.30;78.60;;;;;;909196;153;27460;-78
2022/10/10 00:15:49;;;;;;;2.50;2.30;;;9.30;78.70;;;;;;913286;151;27416;-78
2022/10/10 00:18:15;;;;;;;4.23;2.27;;;9.40;78.90;;;;;;925690;151;27401;-77
2022/10/10 00:20:42;;;;;;;2.90;2.50;;;9.40;78.90;;;;;;923209;151;27389;-77
2022/10/10 00:23:08;;;;;;;2.63;2.43;;;9.40;79.00;;;;;;924851;151;27389;-77
2022/10/10 00:25:35;;;;;;;2.13;1.90;;;9.50;79.00;;;;;;925921;151;27670;-78
2022/10/10 00:28:02;;;;;;;3.53;2.33;;;9.40;79.00;;;;;;924229;151;27925;-78
2022/10/10 00:30:28;;;;;;;2.57;1.80;;;9.50;79.20;;;;;;921767;151;27469;-78
2022/10/10 00:32:55;;;;;;;2.30;2.10;;;9.50;79.20;;;;;;923967;151;27368;-78
2022/10/10 00:35:21;;;;;;;3.03;2.30;;;9.50;79.20;;;;;;924101;151;27400;-78
2022/10/10 00:37:48;;;;;;;4.47;3.00;;;9.50;79.30;;;;;;922206;151;27472;-78
2022/10/10 00:40:15;;;;;;;6.83;2.97;;;9.50;79.30;;;;;;923616;151;27500;-78
2022/10/10 00:42:41;;;;;;;3.47;3.17;;;9.60;79.30;;;;;;922921;151;27413;-78
2022/10/10 00:45:26;;;;;;;5.43;3.13;;;9.50;79.20;;;;;;922961;151;27391;-78
2022/10/10 00:47:52;;;;;;;5.23;3.10;;;9.50;79.30;;;;;;922024;151;27364;-77
2022/10/10 00:50:19;;;;;;;3.10;2.70;;;9.60;79.10;;;;;;922765;151;27393;-78
2022/10/10 00:52:46;;;;;;;2.70;2.50;;;9.50;79.10;;;;;;922375;151;27347;-78
2022/10/10 00:55:12;;;;;;;2.97;2.60;;;9.50;79.30;;;;;;924153;151;27867;-77
2022/10/10 00:57:39;;;;;;;2.83;2.63;;;9.50;79.50;;;;;;923053;151;27404;-77
2022/10/10 01:00:05;;;;;;;2.47;2.27;;;9.50;79.50;;;;;;923247;151;27476;-77
2022/10/10 01:02:32;;;;;;;3.37;2.47;;;9.50;79.50;;;;;;923144;151;27348;-77
2022/10/10 01:04:58;;;;;;;3.47;2.63;;;9.50;79.60;;;;;;923004;151;27372;-77
2022/10/10 01:07:25;;;;;;;3.43;2.50;;;9.50;79.70;;;;;;921714;151;27518;-77
2022/10/10 01:09:52;;;;;;;3.40;2.90;;;9.50;80.00;;;;;;925824;151;27477;-77
2022/10/10 01:12:21;;;;;;;4.33;2.40;;;9.50;80.10;;;;;;922179;151;27916;-77
2022/10/10 01:14:53;;;;;;;5.50;2.33;;;9.50;80.30;;;;;;920064;151;27434;-77
2022/10/10 01:17:31;;;;;;;4.27;3.20;;;9.50;80.30;;;;;;931237;148;27994;-77
2022/10/10 01:20:17;;;;;;;4.60;2.90;;;9.50;80.40;;;;;;937403;148;27495;-77
2022/10/10 01:22:49;;;;;;;6.07;3.53;;;9.40;80.30;;;;;;934942;151;27877;-77
2022/10/10 01:25:37;;;;;;;4.33;3.73;;;9.40;80.10;;;;;;919977;151;28043;-77
2022/10/10 01:28:22;;;;;;;7.03;5.20;;;9.40;80.90;;;;;;937714;148;27727;-77
2022/10/10 01:30:48;;;;;;;5.40;3.90;;;9.40;80.10;;;;;;939195;148;27746;-77
2022/10/10 01:33:18;;;;;;;5.87;4.00;;;9.40;80.10;;;;;;938188;148;27478;-76
2022/10/10 01:35:53;;;;;;;5.10;4.10;;;9.40;80.30;;;;;;937067;148;27500;-77
2022/10/10 01:38:37;;;;;;;4.07;3.30;;;9.30;80.40;;;;;;916095;151;27411;-77
2022/10/10 01:41:10;;;;;;;5.67;3.77;;;9.30;80.50;;;;;;937725;148;27391;-77
2022/10/10 01:43:37;;;;;;;4.53;3.27;;;9.30;80.60;;;;;;937197;148;27360;-77
2022/10/10 01:46:09;;;;;;;3.80;3.30;;;9.20;80.70;;;;;;917829;152;27492;-76
2022/10/10 01:48:36;;;;;;;3.00;2.80;;;9.20;81.00;;;;;;921014;151;28403;-77
2022/10/10 01:51:05;;;;;;;3.80;2.90;;;9.20;81.10;;;;;;916640;152;27388;-77
2022/10/10 01:53:32;;;;;;;2.93;2.60;;;9.20;81.30;;;;;;936357;148;27319;-77
2022/10/10 01:56:13;;;;;;;4.13;2.80;;;9.10;81.40;;;;;;923554;151;27507;-77
2022/10/10 01:58:58;;;;;;;2.50;2.30;;;9.10;81.60;;;;;;930068;148;27390;-77
2022/10/10 02:01:49;;;;;;;2.80;2.50;;;9.10;81.70;;;;;;936798;148;27977;-77
2022/10/10 02:04:25;;;;;;;5.33;2.40;;;9.10;81.80;;;;;;937666;148;27452;-78
2022/10/10 02:06:51;;;;;;;3.67;2.57;;;9.10;82.00;;;;;;937349;148;27364;-77
2022/10/10 02:09:21;;;;;;;2.80;2.27;;;9.10;82.20;;;;;;914387;152;27329;-75
2022/10/10 02:11:47;;;;;;;2.80;2.23;;;9.10;82.50;;;;;;930546;151;27403;-76
2022/10/10 02:14:14;;;;;;;2.70;2.40;;;9.10;82.60;;;;;;937689;148;27458;-75
2022/10/10 02:16:41;;;;;;;4.27;2.60;;;9.00;82.80;;;;;;937660;148;27396;-75
2022/10/10 02:19:07;;;;;;;3.13;2.37;;;9.00;82.90;;;;;;922815;150;27380;-75
2022/10/10 02:21:34;;;;;;;4.63;2.27;;;9.00;83.20;;;;;;902719;153;27394;-75
2022/10/10 02:24:00;;;;;;;3.40;2.57;;;9.10;83.60;;;;;;917493;152;27381;-75
2022/10/10 02:26:27;;;;;;;2.97;2.50;;;9.10;83.90;;;;;;915608;152;27507;-76
2022/10/10 02:28:59;;;;;;;2.60;2.20;;;9.10;84.30;;;;;;917510;151;27420;-75
2022/10/10 02:31:41;;;;;;;4.30;2.30;;;9.20;84.50;;;;;;925573;149;27435;-77
2022/10/10 02:34:13;;;;;;;2.20;2.00;;;9.20;84.50;;;;;;921995;152;27755;-77
2022/10/10 02:36:39;;;;;;;3.20;2.90;;;9.20;84.30;;;;;;909853;152;27433;-76
2022/10/10 02:39:06;;;;;;;2.90;2.57;;;9.20;84.50;;;;;;918873;152;27378;-77
2022/10/10 02:41:32;;;;;;;4.83;2.57;;;9.20;84.50;;;;;;925661;149;27337;-77
2022/10/10 02:43:59;;;;;;;2.30;2.10;;;9.20;84.60;;;;;;925490;149;27342;-77
2022/10/10 02:46:26;;;;;;;2.90;2.20;;;9.20;84.70;;;;;;926394;149;27327;-77
2022/10/10 02:48:52;;;;;;;4.57;2.60;;;9.20;84.60;;;;;;904109;153;28494;-77
2022/10/10 02:51:19;;;;;;;4.50;2.47;;;9.20;85.00;;;;;;917874;152;27404;-77
2022/10/10 02:53:46;;;;;;;2.60;2.40;;;9.20;85.00;;;;;;918020;152;27380;-76
2022/10/10 02:56:12;;;;;;;4.03;2.43;;;9.20;85.10;;;;;;916780;152;27400;-76
2022/10/10 02:58:39;;;;;;;3.23;2.53;;;9.20;85.20;;;;;;917514;151;27460;-76
2022/10/10 03:01:05;;;;;;;2.80;2.53;;;9.20;85.40;;;;;;916713;152;27459;-77
2022/10/10 03:03:32;;;;;;;2.93;2.63;;;9.20;85.50;;;;;;918910;151;27409;-78
2022/10/10 03:05:58;;;;;;;3.87;2.87;;;9.20;85.60;;;;;;916296;152;27521;-77
2022/10/10 03:08:25;;;;;;;3.43;2.53;;;9.20;86.20;;;;;;911856;152;27323;-77
2022/10/10 03:10:57;;;;;;;2.97;2.73;;;9.20;85.90;;;;;;925095;150;27345;-76
2022/10/10 03:13:24;;;;;;;3.70;2.40;;;9.20;86.10;;;;;;910766;152;27520;-77
2022/10/10 03:15:50;;;;;;;3.07;2.73;;;9.20;86.00;;;;;;924503;149;27899;-76
2022/10/10 03:18:17;;;;;;;3.53;2.70;;;9.20;86.50;;;;;;922745;149;27397;-76
2022/10/10 03:20:47;;;;;;;3.07;2.77;;;9.20;87.50;;;;;;927223;149;27342;-76
2022/10/10 03:23:13;;;;;;;3.70;2.53;;;9.20;87.50;;;;;;924701;150;27447;-77
2022/10/10 03:25:40;;;;;;;5.43;2.87;;;9.10;86.80;;;;;;903062;153;27452;-77
2022/10/10 03:28:06;;;;;;;2.80;2.40;;;9.10;87.70;;;;;;918599;152;27391;-76
2022/10/10 03:30:33;;;;;;;3.90;2.73;;;9.10;87.10;;;;;;918399;152;28581;-77
2022/10/10 03:32:59;;;;;;;3.60;2.70;;;9.10;87.30;;;;;;918722;152;27382;-77
2022/10/10 03:35:26;;;;;;;2.90;2.53;;;9.10;87.60;;;;;;918373;152;27482;-77
2022/10/10 03:37:53;;;;;;;4.70;2.90;;;9.10;87.80;;;;;;917502;151;27821;-77
2022/10/10 03:40:19;;;;;;;4.57;3.80;;;9.10;87.90;;;;;;917273;151;27481;-77
2022/10/10 03:42:46;;;;;;;3.23;2.67;;;9.00;88.10;;;;;;918455;152;27494;-76
2022/10/10 03:45:12;;;;;;;4.23;3.03;;;9.00;88.40;;;;;;917347;151;27363;-76
2022/10/10 03:47:39;;;;;;;3.17;2.87;;;9.00;89.50;;;;;;917894;152;27386;-77
2022/10/10 03:50:06;;;;;;;3.67;3.13;;;9.00;89.10;;;;;;916887;152;27460;-76
2022/10/10 03:52:32;;;;;;;3.30;3.00;;;9.00;89.20;;;;;;918003;152;27368;-76
2022/10/10 03:54:59;;;;;;;5.27;3.30;;;9.00;89.40;;;;;;918160;152;27490;-77
2022/10/10 03:57:25;;;;;;;5.10;3.00;;;9.10;89.80;;;;;;916618;152;27351;-77
2022/10/10 03:59:52;;;;;;;3.70;2.87;;;9.10;89.90;;;;;;920612;151;27365;-77
2022/10/10 04:02:19;;;;;;;2.77;2.53;;;9.10;90.00;;;;;;918036;152;27361;-77
2022/10/10 04:04:45;;;;;;;3.10;2.90;;;9.10;90.00;;;;;;918190;152;27428;-77
2022/10/10 04:07:12;;;;;;;3.33;2.97;;;9.10;90.10;;;;;;918502;152;27418;-77
2022/10/10 04:09:38;;;;;;;3.57;2.90;;;9.10;90.30;;;;;;919471;152;27433;-77
2022/10/10 04:12:05;;;;;;;5.30;3.30;;;9.10;90.30;;;;;;917417;152;27921;-77
2022/10/10 04:14:32;;;;;;;4.37;2.83;;;9.10;90.30;;;;;;903510;153;27368;-76
2022/10/10 04:16:58;;;;;;;4.00;2.90;;;9.10;90.30;;;;;;924886;149;27362;-76
2022/10/10 04:19:25;;;;;;;2.90;2.60;;;9.20;90.40;;;;;;909379;152;27482;-76
2022/10/10 04:21:51;;;;;;;2.93;2.73;;;9.20;90.60;;;;;;910087;152;27422;-76
2022/10/10 04:24:18;;;;;;;3.17;2.93;;;9.20;90.60;;;;;;903419;153;27799;-77
2022/10/10 04:26:44;;;;;;;2.77;2.57;;;9.20;90.60;;;;;;927224;149;27423;-76
2022/10/10 04:29:11;;;;;;;4.63;2.83;;;9.20;90.60;;;;;;927128;149;27374;-77
2022/10/10 04:31:38;;;;;;;3.83;2.90;;;9.20;90.70;;;;;;906831;153;27391;-77
2022/10/10 04:34:04;;;;;;;3.67;2.87;;;9.20;90.80;;;;;;925586;149;28102;-76
2022/10/10 04:36:31;;;;;;;3.53;3.10;;;9.20;90.70;;;;;;905209;153;27435;-76
2022/10/10 04:38:58;;;;;;;4.80;3.10;;;9.10;90.80;;;;;;923566;150;27359;-77
2022/10/10 04:41:24;;;;;;;3.63;2.80;;;9.10;90.80;;;;;;908857;152;27486;-76
2022/10/10 04:43:51;;;;;;;4.00;3.03;;;9.10;90.80;;;;;;909953;152;27506;-77
2022/10/10 04:46:17;;;;;;;3.40;3.10;;;9.10;91.00;;;;;;928093;149;27392;-77
2022/10/10 04:48:44;;;;;;;3.87;3.20;;;9.10;91.10;;;;;;918072;153;27434;-77
2022/10/10 04:51:10;;;;;;;4.30;3.20;;;9.10;91.20;;;;;;911805;152;27677;-77
2022/10/10 04:53:37;;;;;;;3.73;2.80;;;9.10;91.30;;;;;;904718;153;27486;-78
2022/10/10 04:56:03;;;;;;;3.30;2.70;;;9.10;91.30;;;;;;918682;151;27424;-77
2022/10/10 04:58:30;;;;;;;4.07;3.03;;;9.10;91.30;;;;;;916173;151;28123;-77
2022/10/10 05:00:57;;;;;;;4.50;3.10;;;9.20;91.40;;;;;;915665;151;27416;-78
2022/10/10 05:03:24;;;;;;;3.23;2.70;;;9.20;91.50;;;;;;918943;151;27495;-77
2022/10/10 05:05:50;;;;;;;4.10;3.30;;;9.20;91.60;;;;;;918519;152;27361;-77
2022/10/10 05:08:17;;;;;;;3.77;3.10;;;9.10;91.70;;;;;;918464;151;27357;-77
2022/10/10 05:10:43;;;;;;;3.97;2.97;;;9.20;91.70;;;;;;915758;152;27417;-77
2022/10/10 05:13:10;;;;;;;3.33;2.80;;;9.20;91.80;;;;;;916674;152;27400;-77
2022/10/10 05:15:36;;;;;;;3.53;2.93;;;9.20;91.90;;;;;;916868;152;27444;-77
2022/10/10 05:18:03;;;;;;;3.40;2.80;;;9.10;91.90;;;;;;919014;152;27375;-77
2022/10/10 05:20:29;;;;;;;3.90;2.70;;;9.20;92.00;;;;;;928489;149;27323;-77
2022/10/10 05:22:56;;;;;;;3.03;2.73;;;9.20;92.10;;;;;;909781;152;28046;-77
2022/10/10 05:25:22;;;;;;;5.17;3.20;;;9.20;92.20;;;;;;911080;152;27411;-77
2022/10/10 05:27:49;;;;;;;3.70;2.90;;;9.20;92.10;;;;;;902426;152;27907;-77
2022/10/10 05:30:16;;;;;;;2.70;2.50;;;9.20;92.20;;;;;;909087;152;27368;-77
2022/10/10 05:32:42;;;;;;;5.50;3.40;;;9.20;92.30;;;;;;901757;153;27364;-77
2022/10/10 05:35:09;;;;;;;3.87;3.53;;;9.20;92.30;;;;;;924293;149;27355;-77
2022/10/10 05:37:35;;;;;;;3.50;3.20;;;9.20;92.40;;;;;;912996;152;27387;-77
2022/10/10 05:40:02;;;;;;;3.30;3.00;;;9.10;92.50;;;;;;925092;149;28604;-77
2022/10/10 05:42:29;;;;;;;4.47;2.73;;;9.10;92.60;;;;;;902531;153;27375;-77
2022/10/10 05:44:55;;;;;;;3.97;3.07;;;9.10;92.60;;;;;;925940;149;27342;-77
2022/10/10 05:47:22;;;;;;;5.13;2.97;;;9.10;92.70;;;;;;909689;152;27352;-77
2022/10/10 05:49:48;;;;;;;4.17;3.50;;;9.10;92.70;;;;;;902929;153;27449;-77
2022/10/10 05:52:15;;;;;;;3.23;2.90;;;9.10;92.90;;;;;;903820;153;27395;-77
2022/10/10 05:54:41;;;;;;;11.63;6.67;;;9.10;93.20;;;;;;923148;150;27446;-77
2022/10/10 05:57:08;;;;;;;5.70;5.17;;;9.10;93.70;;;;;;913828;152;27465;-77
2022/10/10 05:59:35;;;;;;;5.90;5.00;;;9.20;94.40;;;;;;913072;152;27358;-77
2022/10/10 06:02:01;;;;;;;5.63;4.97;;;9.30;95.00;;;;;;913844;153;27355;-77
2022/10/10 06:04:28;;;;;;;4.30;3.50;;;9.40;95.30;;;;;;912369;152;27497;-77
2022/10/10 06:06:54;;;;;;;4.87;3.50;;;9.50;95.20;;;;;;913664;152;27822;-77
2022/10/10 06:09:21;;;;;;;3.90;3.50;;;9.60;95.30;;;;;;913897;152;27389;-77
2022/10/10 06:11:48;;;;;;;5.20;3.50;;;9.80;95.80;;;;;;915371;152;27444;-77
2022/10/10 06:14:14;;;;;;;3.57;3.27;;;10.00;96.50;;;;;;913819;152;27371;-76
2022/10/10 06:16:43;;;;;;;3.67;3.20;;;10.30;97.20;;;;;;913576;152;27470;-78
2022/10/10 06:19:07;;;;;;;3.77;3.00;;;10.60;97.30;;;;;;912972;152;27482;-77
2022/10/10 06:21:34;;;;;;;5.17;3.63;;;10.90;97.60;;;;;;914576;152;27475;-78
2022/10/10 06:24:01;;;;;;;7.80;3.20;;;11.30;97.50;;;;;;914536;152;27373;-78
2022/10/10 06:26:27;;;;;;;4.33;2.93;;;11.70;97.40;;;;;;921981;154;27313;-78
2022/10/10 06:28:54;;;;;;;7.13;2.83;;;12.20;97.40;;;;;;919721;154;28089;-78
2022/10/10 06:31:20;;;;;;;4.27;2.57;;;12.60;97.40;;;;;;919616;154;27507;-78
2022/10/10 06:33:48;;;;;;;4.37;2.80;;;13.10;96.50;;;;;;921014;154;27325;-78
2022/10/10 06:36:13;;;;;;;4.10;2.80;;;13.60;95.20;;;;;;919963;154;27381;-78
2022/10/10 06:38:40;;;;;;;3.37;2.90;;;14.10;94.30;;;;;;920936;154;27413;-79
2022/10/10 06:41:07;;;;;;;4.63;3.03;;;14.50;92.90;;;;;;919539;151;27377;-78
2022/10/10 06:43:33;;;;;;;3.12;2.83;;;15.00;91.80;;;;;;922268;151;27356;-78
2022/10/10 06:46:00;;;;;;;3.52;2.47;;;15.40;91.20;;;;;;919747;151;27378;-78
2022/10/10 06:48:28;;;;;;;3.30;3.00;;;15.70;89.80;;;;;;918962;154;27450;-78
2022/10/10 06:50:59;;;;;;;4.95;2.72;;;16.10;86.60;;;;;;918547;154;27450;-78
2022/10/10 06:53:26;;;;;;;3.92;2.65;;;16.40;84.10;;;;;;919173;154;27464;-78
2022/10/10 06:55:52;;;;;;;2.70;2.50;;;16.60;83.50;;;;;;920353;154;27510;-79
2022/10/10 06:58:19;;;;;;;3.25;2.47;;;16.90;83.20;;;;;;921077;154;27403;-79
2022/10/10 07:00:48;;;;;;;4.05;2.85;;;17.20;82.40;;;;;;920702;154;27397;-79
2022/10/10 07:03:15;;;;;;;4.53;2.65;;;17.60;81.60;;;;;;920520;151;27495;-79
2022/10/10 07:05:41;;;;;;;3.08;2.77;;;17.90;80.70;;;;;;921211;151;27385;-79
2022/10/10 07:08:08;;;;;;;3.42;2.47;;;18.30;80.10;;;;;;919434;151;27410;-79
2022/10/10 07:10:35;;;;;;;3.58;2.52;;;18.70;78.90;;;;;;921650;154;27417;-79
2022/10/10 07:13:01;;;;;;;3.95;2.50;;;19.20;77.80;;;;;;917572;154;27385;-79
2022/10/10 07:15:28;;;;;;;4.17;3.27;;;19.70;77.30;;;;;;919419;152;27388;-79
2022/10/10 07:17:57;;;;;;;4.47;3.22;;;20.20;76.50;;;;;;921724;154;27398;-79
2022/10/10 07:20:24;;;;;;;2.65;2.42;;;20.70;75.40;;;;;;919232;154;27485;-79
2022/10/10 07:22:50;;;;;;;2.40;2.17;;;21.30;73.70;;;;;;919816;154;27522;-79
2022/10/10 07:25:17;;;;;;;2.37;2.12;;;21.70;72.80;;;;;;919799;151;28233;-80
2022/10/10 07:27:43;;;;;;;4.80;2.80;;;22.10;70.70;;;;;;918526;152;27429;-79
2022/10/10 07:30:10;;;;;;;2.83;2.37;;;22.40;68.20;;;;;;919240;152;27436;-79
2022/10/10 07:32:37;;;;;;;3.70;2.67;;;22.50;65.70;;;;;;919000;152;27386;-79
2022/10/10 07:35:03;;;;;;;2.77;2.30;;;22.40;63.60;;;;;;917223;152;27410;-78
2022/10/10 07:37:30;;;;;;;3.10;2.67;;;22.20;62.60;;;;;;920601;152;28307;-78
2022/10/10 07:39:56;;;;;;;3.87;2.50;;;21.90;62.10;;;;;;917554;152;27349;-78
2022/10/10 07:42:23;;;;;;;4.62;2.70;;;21.60;62.30;;;;;;918626;151;27359;-78
2022/10/10 07:44:50;;;;;;;4.00;3.05;;;21.30;62.40;;;;;;918196;152;27389;-78
2022/10/10 07:47:16;;;;;;;3.85;2.75;;;21.00;63.40;;;;;;916578;152;27584;-78
2022/10/10 07:49:43;;;;;;;2.95;2.70;;;20.80;62.90;;;;;;917842;152;27414;-78
2022/10/10 07:52:09;;;;;;;5.72;2.80;;;20.50;63.00;;;;;;917583;151;27319;-78
2022/10/10 07:54:36;;;;;;;2.65;2.45;;;20.30;63.30;;;;;;919126;152;27360;-78
2022/10/10 07:57:03;;;;;;;2.55;2.35;;;20.00;63.30;;;;;;917417;152;27844;-78
2022/10/10 07:59:29;;;;;;;4.12;2.58;;;19.80;63.50;;;;;;918706;152;27453;-78
2022/10/10 08:01:56;;;;;;;3.05;2.27;;;19.60;63.80;;;;;;918058;152;27381;-78
2022/10/10 08:04:22;;;;;;;2.90;2.50;;;19.40;63.90;;;;;;917158;152;27396;-78
2022/10/10 08:06:49;;;;;;;4.05;2.50;;;19.20;65.00;;;;;;919853;151;27357;-78
2022/10/10 08:09:16;;;;;;;2.60;2.40;;;19.10;65.00;;;;;;918403;151;27933;-78
2022/10/10 08:11:42;;;;;;;3.95;3.00;;;19.10;66.20;;;;;;919283;152;27827;-78
2022/10/10 08:14:09;;;;;;;2.55;2.35;;;19.40;68.50;;;;;;917893;152;27406;-79
2022/10/10 08:16:35;;;;;;;2.58;2.37;;;19.90;70.50;;;;;;917895;152;27413;-79
2022/10/10 08:19:03;;;;;;;4.10;2.30;;;20.50;71.50;;;;;;917312;152;27418;-79
2022/10/10 08:21:28;;;;;;;3.40;2.58;;;21.40;71.70;;;;;;917272;152;27379;-79
2022/10/10 08:23:55;;;;;;;2.42;2.22;;;22.20;71.00;;;;;;917357;152;27379;-79
2022/10/10 08:26:22;;;;;;;3.35;2.20;;;23.10;69.40;;;;;;923631;149;27424;-79
2022/10/10 08:31:11;;;;;;;2.00;1.90;;;23.90;67.60;;;;;;972822;145;37079;-77
2022/10/10 08:33:38;;;;;;;2.47;1.85;;;25.30;64.60;;;;;;953178;147;27331;-77
2022/10/10 08:36:07;;;;;;;4.15;2.47;;;25.90;62.80;;;;;;953282;148;27405;-78
2022/10/10 08:38:34;;;;;;;2.15;2.00;;;26.40;61.20;;;;;;951624;149;27443;-78
2022/10/10 08:41:00;;;;;;;2.90;2.00;;;27.00;60.20;;;;;;954571;149;27261;-79
2022/10/10 08:43:27;;;;;;;2.02;1.92;;;27.40;59.30;;;;;;951751;148;27400;-79
2022/10/10 08:45:54;;;;;;;2.30;2.12;;;27.80;58.60;;;;;;937312;151;27410;-79
2022/10/10 08:48:23;;;;;;;2.87;2.17;;;28.30;58.00;;;;;;937917;151;27341;-79
2022/10/10 08:51:02;;;;;;;2.00;1.85;;;28.80;57.20;;;;;;938010;150;27365;-78
2022/10/10 08:53:31;;;;;;;3.02;1.92;;;29.20;56.40;;;;;;939880;148;27451;-79
2022/10/10 08:55:57;;;;;;;6.08;2.37;;;29.50;55.40;;;;;;936687;148;27315;-79
2022/10/10 08:58:28;;;;;;;3.83;2.22;;;29.80;54.60;;;;;;916549;154;27325;-79
2022/10/10 09:01:09;;;;;;;1.95;1.77;;;29.90;53.80;;;;;;936432;151;27354;-79
2022/10/10 09:03:41;;;;;;;3.30;1.65;;;30.00;53.10;;;;;;934614;151;27407;-79
2022/10/10 09:06:35;;;;;;;3.17;2.00;;;29.90;52.20;;;;;;934848;150;27302;-79
2022/10/10 09:09:07;;;;;;;3.75;1.80;;;29.70;51.20;;;;;;938079;151;27353;-79
2022/10/10 09:11:55;;;;;;;4.97;2.17;;;29.30;50.80;;;;;;935792;149;27336;-78
2022/10/10 09:14:30;;;;;;;3.83;1.92;;;28.80;50.50;;;;;;938323;151;27454;-78
2022/10/10 09:17:03;;;;;;;2.47;2.27;;;28.20;50.30;;;;;;937264;148;27334;-78
2022/10/10 09:19:35;;;;;;;2.50;2.30;;;27.60;50.60;;;;;;937690;150;27340;-78
2022/10/10 09:22:01;;;;;;;2.90;2.27;;;27.10;50.90;;;;;;937335;150;27261;-78
2022/10/10 09:24:28;;;;;;;2.27;2.08;;;26.60;51.10;;;;;;935333;150;27328;-78
2022/10/10 09:26:55;;;;;;;2.42;2.22;;;26.30;51.60;;;;;;934006;151;28673;-78
2022/10/10 09:29:27;;;;;;;2.12;1.87;;;26.00;52.40;;;;;;937324;151;27312;-78
2022/10/10 09:32:00;;;;;;;2.27;2.10;;;25.80;52.80;;;;;;940181;150;27307;-79
2022/10/10 09:34:35;;;;;;;4.67;2.62;;;25.60;53.20;;;;;;916561;154;27396;-79
2022/10/10 09:37:02;;;;;;;2.40;2.17;;;25.60;53.80;;;;;;939275;151;27470;-78
2022/10/10 09:39:43;;;;;;;3.35;2.35;;;25.50;54.00;;;;;;939201;150;29014;-78
2022/10/10 09:42:16;;;;;;;2.05;1.95;;;25.50;53.90;;;;;;939168;151;27319;-79
2022/10/10 09:44:42;;;;;;;2.12;1.92;;;25.50;54.00;;;;;;938538;148;27311;-78
2022/10/10 09:47:12;;;;;;;4.58;2.27;;;25.50;53.90;;;;;;937641;148;27367;-79
2022/10/10 09:49:38;;;;;;;2.65;2.45;;;25.50;53.90;;;;;;937266;151;27379;-78
2022/10/10 09:52:26;;;;;;;2.72;2.10;;;25.50;53.70;;;;;;939226;150;27395;-78
2022/10/10 09:54:52;;;;;;;4.92;2.50;;;25.50;53.50;;;;;;936770;148;27369;-78
2022/10/10 09:57:19;;;;;;;5.55;2.70;;;25.50;53.20;;;;;;940658;148;27338;-78
2022/10/10 09:59:45;;;;;;;4.10;2.47;;;25.40;52.80;;;;;;938083;151;27757;-78
2022/10/10 10:02:18;;;;;;;3.50;2.40;;;25.20;52.80;;;;;;938988;148;27345;-78
2022/10/10 10:04:45;;;;;;;4.78;2.30;;;25.00;52.70;;;;;;936948;148;27351;-78
2022/10/10 10:07:30;;;;;;;3.50;2.17;;;24.80;52.90;;;;;;938844;148;27300;-78
2022/10/10 10:09:56;;;;;;;2.42;2.20;;;24.60;53.10;;;;;;938045;151;27363;-79
2022/10/10 10:12:22;;;;;;;2.58;2.37;;;24.40;53.30;;;;;;937752;148;27336;-79
2022/10/10 10:14:49;;;;;;;4.58;2.10;;;24.20;53.50;;;;;;935360;149;27387;-78
2022/10/10 10:17:15;;;;;;;2.85;2.10;;;24.00;53.80;;;;;;937770;151;27323;-78
2022/10/10 10:19:42;;;;;;;2.40;2.20;;;23.80;54.00;;;;;;937885;148;27396;-79
2022/10/10 10:22:26;;;;;;;2.33;2.02;;;23.70;54.20;;;;;;940027;148;27857;-78
2022/10/10 10:24:53;;;;;;;2.60;2.20;;;23.60;54.60;;;;;;919015;148;27318;-78
2022/10/10 10:27:20;;;;;;;2.77;2.58;;;23.40;54.60;;;;;;938368;151;27374;-77
2022/10/10 10:29:46;;;;;;;3.50;2.05;;;23.30;54.80;;;;;;938488;148;27406;-78
2022/10/10 10:32:41;;;;;;;2.98;1.92;;;23.20;55.10;;;;;;923332;152;27443;-78
2022/10/10 10:35:16;;;;;;;2.35;2.15;;;23.10;55.30;;;;;;920404;154;27303;-78
2022/10/10 10:37:51;;;;;;;2.35;2.00;;;23.00;55.50;;;;;;929460;154;27487;-78
2022/10/10 10:40:23;;;;;;;1.67;1.57;;;22.90;55.70;;;;;;934001;151;27452;-78
2022/10/10 10:43:12;;;;;;;2.60;2.00;;;22.80;56.00;;;;;;934140;148;28081;-78
2022/10/10 10:45:48;;;;;;;2.33;2.12;;;22.70;56.30;;;;;;924371;152;28147;-78
2022/10/10 10:48:23;;;;;;;3.47;2.00;;;22.70;56.40;;;;;;934851;148;27303;-78
2022/10/10 10:51:01;;;;;;;2.30;2.10;;;22.70;56.70;;;;;;934004;151;27331;-78
2022/10/10 10:53:31;;;;;;;2.87;2.15;;;22.70;56.90;;;;;;928785;154;27265;-78
2022/10/10 10:56:03;;;;;;;2.90;2.00;;;22.70;57.00;;;;;;935220;148;27453;-77
2022/10/10 10:58:42;;;;;;;3.77;2.17;;;22.60;57.20;;;;;;935211;151;27320;-78
2022/10/10 11:01:11;;;;;;;2.87;2.15;;;22.60;57.30;;;;;;934341;149;27448;-78
2022/10/10 11:03:59;;;;;;;3.95;1.98;;;22.60;57.50;;;;;;934171;151;27435;-78
2022/10/10 11:06:50;;;;;;;7.45;2.10;;;22.60;57.60;;;;;;929257;151;27303;-78
2022/10/10 11:09:19;;;;;;;4.55;2.58;;;22.60;57.80;;;;;;934830;149;27353;-78
2022/10/10 11:11:46;;;;;;;3.05;2.33;;;22.60;57.90;;;;;;936417;148;27918;-77
2022/10/10 11:14:40;;;;;;;2.45;2.12;;;22.60;58.00;;;;;;934327;151;27499;-77
2022/10/10 11:17:07;;;;;;;2.67;2.47;;;22.50;58.10;;;;;;935357;149;27444;-78
2022/10/10 11:19:55;;;;;;;2.15;2.05;;;22.50;58.20;;;;;;935544;151;27326;-78
2022/10/10 11:22:36;;;;;;;5.05;2.40;;;22.50;58.40;;;;;;934955;148;27849;-77
2022/10/10 11:25:15;;;;;;;4.72;2.33;;;22.50;58.50;;;;;;935094;148;27430;-78
2022/10/10 11:27:44;;;;;;;3.47;2.30;;;22.50;58.50;;;;;;933889;151;27490;-78
2022/10/10 11:30:14;;;;;;;4.42;2.35;;;22.50;58.70;;;;;;932358;151;27433;-77
2022/10/10 11:32:53;;;;;;;4.60;2.08;;;22.50;58.80;;;;;;936696;148;28196;-78
2022/10/10 11:35:25;;;;;;;3.20;2.60;;;22.50;58.90;;;;;;933694;151;27288;-78
2022/10/10 11:37:54;;;;;;;2.35;1.92;;;22.60;59.00;;;;;;939130;149;27328;-78
2022/10/10 11:40:36;;;;;;;3.52;2.42;;;22.60;58.90;;;;;;934217;151;27367;-78
2022/10/10 11:43:02;;;;;;;4.10;2.20;;;22.60;58.90;;;;;;932955;148;27353;-78
2022/10/10 11:45:32;;;;;;;3.67;2.17;;;22.60;58.80;;;;;;935121;148;27442;-78
2022/10/10 11:48:04;;;;;;;4.30;2.65;;;22.60;59.50;;;;;;922274;154;27919;-78
2022/10/10 11:50:30;;;;;;;5.53;2.52;;;22.60;58.90;;;;;;913131;154;27464;-78
2022/10/10 11:53:15;;;;;;;3.40;2.15;;;22.60;59.00;;;;;;918627;154;27359;-78
2022/10/10 11:55:54;;;;;;;2.90;2.37;;;22.60;59.20;;;;;;920636;154;27327;-78
2022/10/10 11:58:33;;;;;;;2.45;2.15;;;22.60;59.00;;;;;;916947;152;27437;-79
2022/10/10 12:01:05;;;;;;;3.62;2.12;;;22.60;59.10;;;;;;935920;148;27279;-79
2022/10/10 12:03:32;;;;;;;6.22;2.10;;;22.60;59.30;;;;;;935157;151;27375;-79
2022/10/10 12:06:01;;;;;;;3.50;2.30;;;22.60;59.30;;;;;;934876;151;27813;-79
2022/10/10 12:08:34;;;;;;;4.58;2.25;;;22.60;59.40;;;;;;935289;148;27457;-79
2022/10/10 12:11:00;;;;;;;4.22;2.33;;;22.60;59.40;;;;;;936351;151;27392;-79
2022/10/10 12:13:45;;;;;;;2.20;1.95;;;22.60;59.30;;;;;;934717;151;27410;-79
2022/10/10 12:16:14;;;;;;;4.20;2.10;;;22.60;59.50;;;;;;934956;151;27484;-79
2022/10/10 12:18:44;;;;;;;2.52;2.30;;;22.60;59.50;;;;;;933681;151;27411;-79
2022/10/10 12:21:10;;;;;;;4.15;1.90;;;22.60;59.50;;;;;;933276;151;27292;-79
2022/10/10 12:23:36;;;;;;;2.62;2.17;;;22.60;59.50;;;;;;936077;151;27409;-79
2022/10/10 12:26:03;;;;;;;4.28;2.25;;;22.70;59.60;;;;;;936312;149;27464;-79
2022/10/10 12:29:00;;;;;;;4.20;2.00;;;22.70;59.60;;;;;;933066;151;27449;-79
2022/10/10 12:31:29;;;;;;;4.40;2.08;;;22.70;59.70;;;;;;936273;151;27466;-79
2022/10/10 12:34:02;;;;;;;4.37;1.85;;;22.80;59.60;;;;;;936264;148;27348;-79
2022/10/10 12:36:28;;;;;;;4.67;1.90;;;22.80;59.50;;;;;;935040;149;27462;-79
2022/10/10 12:39:05;;;;;;;2.10;1.80;;;22.80;59.40;;;;;;934662;149;27360;-79
2022/10/10 12:41:55;;;;;;;2.55;2.10;;;22.90;59.40;;;;;;934421;149;27365;-79
2022/10/10 12:44:25;;;;;;;3.30;1.80;;;22.90;59.30;;;;;;933658;149;27789;-78
2022/10/10 12:47:15;;;;;;;2.95;2.12;;;22.90;59.20;;;;;;936911;151;27371;-78
2022/10/10 12:49:51;;;;;;;3.90;2.25;;;23.00;59.20;;;;;;936227;151;27339;-78
2022/10/10 12:52:20;;;;;;;6.22;2.30;;;23.00;59.20;;;;;;935357;149;27312;-78
2022/10/10 12:54:46;;;;;;;3.08;2.75;;;23.00;59.00;;;;;;934843;149;27346;-78
2022/10/10 12:57:16;;;;;;;4.47;2.33;;;23.00;59.00;;;;;;935567;151;28063;-78
2022/10/10 12:59:43;;;;;;;5.03;2.08;;;23.00;59.00;;;;;;935105;149;27479;-79
2022/10/10 13:02:12;;;;;;;3.45;2.00;;;23.10;59.00;;;;;;936244;151;27333;-78
2022/10/10 13:04:38;;;;;;;6.30;2.22;;;23.10;59.00;;;;;;936767;149;27356;-78
2022/10/10 13:07:05;;;;;;;3.35;1.98;;;23.10;58.90;;;;;;921876;154;27349;-79